Grapevine, Arkansas
Current Conditions -  °F | °C
As of 5:53 AM on Sunday 23 Nov 2014 (Local Time) from KPBF Reporting Station
Overcast Overcast  
Wind Chill: 14°   Ceiling: 800
Heat Index: 14°   Visibility: 10mi
Dew Point: 12°   Wind: 10mph
Humidity: 89%   Direction: 140°SE
Pressure: 29.7"   Gusts: NA
Location:  34.15°N, 92.32°W
Report Text: KPBF 231153Z AUTO 14009KT 10SM OVC008 14/12 A2970 RMK AO2 RAB31E39 SLP055 P0000 60015 70015 T01390122 10144 20133 56026
Loading
Personal Weather Stations






























Interactive Weather Map New forecast layout! Learn more

10-Day Weather Forecast

Advertisements
Track Severe Weather on mobile